createdAt,value
2019-02-24T00:00:49.473Z,20.9
2019-02-24T00:01:39.540Z,20.9
2019-02-24T00:02:29.586Z,20.9
2019-02-24T00:03:19.372Z,20.9
2019-02-24T00:04:09.701Z,20.9
2019-02-24T00:04:59.750Z,20.9
2019-02-24T00:05:49.545Z,20.9
2019-02-24T00:06:39.602Z,20.9
2019-02-24T00:07:29.925Z,20.9
2019-02-24T00:08:19.988Z,20.9
2019-02-24T00:09:10.065Z,20.9
2019-02-24T00:09:59.832Z,20.9
2019-02-24T00:10:50.220Z,20.8
2019-02-24T00:11:40.211Z,20.9
2019-02-24T00:12:30.268Z,20.9
2019-02-24T00:13:20.329Z,20.9
2019-02-24T00:14:10.430Z,20.8
2019-02-24T00:15:00.460Z,20.8
2019-02-24T00:15:50.499Z,20.8
2019-02-24T00:16:40.560Z,20.8
2019-02-24T00:17:30.614Z,20.8
2019-02-24T00:18:20.667Z,20.8
2019-02-24T00:19:10.457Z,20.8
2019-02-24T00:20:00.787Z,20.8
2019-02-24T00:20:50.854Z,20.8
2019-02-24T00:21:40.893Z,20.8
2019-02-24T00:22:30.962Z,20.8
2019-02-24T00:23:21.013Z,20.8
2019-02-24T00:24:11.072Z,20.8
2019-02-24T00:25:00.949Z,20.8
2019-02-24T00:25:51.191Z,20.8
2019-02-24T00:26:41.246Z,20.8
2019-02-24T00:27:31.299Z,20.8
2019-02-24T00:28:21.356Z,20.8
2019-02-24T00:29:11.428Z,20.8
2019-02-24T00:30:01.475Z,20.8
2019-02-24T00:30:51.528Z,20.8
2019-02-24T00:31:41.594Z,20.8
2019-02-24T00:32:31.643Z,20.8
2019-02-24T00:33:21.730Z,20.8
2019-02-24T00:34:11.753Z,20.8
2019-02-24T00:35:01.827Z,20.8
2019-02-24T00:35:51.874Z,20.8
2019-02-24T00:36:41.655Z,20.8
2019-02-24T00:37:31.730Z,20.8
2019-02-24T00:38:22.047Z,20.8
2019-02-24T00:39:12.156Z,20.8
2019-02-24T00:40:02.165Z,20.8
2019-02-24T00:40:52.219Z,20.8
2019-02-24T00:41:42.270Z,20.8
2019-02-24T00:42:32.338Z,20.8
2019-02-24T00:43:22.115Z,20.8
2019-02-24T00:44:12.456Z,20.7
2019-02-24T00:45:02.231Z,20.8
2019-02-24T00:45:52.286Z,20.8
2019-02-24T00:46:42.393Z,20.8
2019-02-24T00:47:32.676Z,20.7
2019-02-24T00:48:22.736Z,20.7
2019-02-24T00:49:12.790Z,20.7
2019-02-24T00:50:02.583Z,20.7
2019-02-24T00:50:52.900Z,20.7
2019-02-24T00:51:42.730Z,20.7
2019-02-24T00:52:33.021Z,20.7
2019-02-24T00:53:23.076Z,20.7
2019-02-24T00:54:13.132Z,20.7
2019-02-24T00:55:03.200Z,20.7
2019-02-24T00:55:53.248Z,20.7
2019-02-24T00:56:43.023Z,20.7
2019-02-24T00:57:33.365Z,20.7
2019-02-24T00:58:23.419Z,20.7
2019-02-24T00:59:13.475Z,20.7
2019-02-24T01:00:03.530Z,20.6
2019-02-24T01:00:53.588Z,20.6
2019-02-24T01:01:43.646Z,20.7
2019-02-24T01:02:33.702Z,20.6
2019-02-24T01:03:23.762Z,20.6
2019-02-24T01:04:13.817Z,20.6
2019-02-24T01:05:03.877Z,20.6
2019-02-24T01:05:53.934Z,20.6
2019-02-24T01:06:43.725Z,20.6
2019-02-24T01:07:33.771Z,20.6
2019-02-24T01:08:24.114Z,20.6
2019-02-24T01:09:14.173Z,20.6
2019-02-24T01:10:04.223Z,20.6
2019-02-24T01:10:54.334Z,20.6
2019-02-24T01:11:44.334Z,20.6
2019-02-24T01:12:34.394Z,20.6
2019-02-24T01:13:24.449Z,20.6
2019-02-24T01:14:14.504Z,20.6
2019-02-24T01:15:04.572Z,20.6
2019-02-24T01:15:54.619Z,20.6
2019-02-24T01:16:44.401Z,20.6
2019-02-24T01:17:34.464Z,20.6
2019-02-24T01:18:24.796Z,20.6
2019-02-24T01:19:14.849Z,20.6
2019-02-24T01:20:04.909Z,20.6
2019-02-24T01:20:54.971Z,20.6
2019-02-24T01:21:45.025Z,20.6
2019-02-24T01:22:35.077Z,20.6
2019-02-24T01:23:25.133Z,20.6
2019-02-24T01:24:15.188Z,20.6
2019-02-24T01:25:05.249Z,20.6
2019-02-24T01:25:55.306Z,20.6
2019-02-24T01:26:45.361Z,20.6
2019-02-24T01:27:35.421Z,20.6
2019-02-24T01:28:26.513Z,20.5
2019-02-24T01:29:15.537Z,20.6
2019-02-24T01:30:05.595Z,20.5
2019-02-24T01:30:55.373Z,20.5
2019-02-24T01:31:45.706Z,20.5
2019-02-24T01:32:35.758Z,20.6
2019-02-24T01:33:25.827Z,20.5
2019-02-24T01:34:15.598Z,20.5
2019-02-24T01:35:05.941Z,20.5
2019-02-24T01:35:55.993Z,20.5
2019-02-24T01:36:46.050Z,20.5
2019-02-24T01:37:36.111Z,20.5
2019-02-24T01:38:26.166Z,20.5
2019-02-24T01:39:16.218Z,20.5
2019-02-24T01:40:06.277Z,20.5
2019-02-24T01:40:56.332Z,20.4
2019-02-24T01:41:46.403Z,20.5
2019-02-24T01:42:36.443Z,20.5
2019-02-24T01:43:26.500Z,20.5
2019-02-24T01:44:16.296Z,20.5
2019-02-24T01:45:06.617Z,20.5
2019-02-24T01:45:56.405Z,20.4
2019-02-24T01:46:46.742Z,20.4
2019-02-24T01:47:36.804Z,20.4
2019-02-24T01:48:26.850Z,20.4
2019-02-24T01:49:16.902Z,20.4
2019-02-24T01:50:06.693Z,20.4
2019-02-24T01:50:56.742Z,20.4
2019-02-24T01:51:47.082Z,20.4
2019-02-24T01:52:37.135Z,20.4
2019-02-24T01:53:27.189Z,20.4
2019-02-24T01:54:17.254Z,20.4
2019-02-24T01:55:07.307Z,20.4
2019-02-24T01:55:57.100Z,20.4
2019-02-24T01:56:47.144Z,20.4
2019-02-24T01:57:37.476Z,20.4
2019-02-24T01:58:36.039Z,20.4
2019-02-24T01:59:17.595Z,20.4
2019-02-24T02:00:07.648Z,20.4
2019-02-24T02:00:57.704Z,20.4
2019-02-24T02:01:47.769Z,20.4
2019-02-24T02:02:37.819Z,20.4
2019-02-24T02:03:27.334Z,20.4
2019-02-24T02:04:17.951Z,20.4
2019-02-24T02:05:07.991Z,20.4
2019-02-24T02:05:58.057Z,20.4
2019-02-24T02:06:47.829Z,20.4
2019-02-24T02:07:38.163Z,20.4
2019-02-24T02:08:28.242Z,20.4
2019-02-24T02:09:18.325Z,20.4
2019-02-24T02:10:08.344Z,20.4
2019-02-24T02:10:58.386Z,20.4
2019-02-24T02:11:48.440Z,20.3
2019-02-24T02:12:38.505Z,20.4
2019-02-24T02:13:28.561Z,20.3
2019-02-24T02:14:18.636Z,20.3
2019-02-24T02:15:08.674Z,20.3
2019-02-24T02:15:58.741Z,20.3
2019-02-24T02:16:48.792Z,20.3
2019-02-24T02:17:38.847Z,20.3
2019-02-24T02:18:28.629Z,20.3
2019-02-24T02:19:18.955Z,20.3
2019-02-24T02:20:09.020Z,20.3
2019-02-24T02:20:58.796Z,20.3
2019-02-24T02:21:49.138Z,20.3
2019-02-24T02:22:39.197Z,20.3
2019-02-24T02:23:28.973Z,20.3
2019-02-24T02:24:19.311Z,20.3
2019-02-24T02:25:09.360Z,20.3
2019-02-24T02:25:59.142Z,20.3
2019-02-24T02:26:49.474Z,20.3
2019-02-24T02:27:39.540Z,20.3
2019-02-24T02:28:29.587Z,20.3
2019-02-24T02:29:19.372Z,20.3
2019-02-24T02:30:09.734Z,20.3
2019-02-24T02:30:59.763Z,20.3
2019-02-24T02:31:49.839Z,20.3
2019-02-24T02:32:39.883Z,20.3
2019-02-24T02:33:29.928Z,20.3
2019-02-24T02:34:19.986Z,20.3
2019-02-24T02:35:10.039Z,20.3
2019-02-24T02:35:59.826Z,20.3
2019-02-24T02:36:50.161Z,20.3
2019-02-24T02:37:40.217Z,20.3
2019-02-24T02:38:30.277Z,20.2
2019-02-24T02:39:20.333Z,20.3
2019-02-24T02:40:10.390Z,20.3
2019-02-24T02:41:00.445Z,20.2
2019-02-24T02:41:50.504Z,20.2
2019-02-24T02:42:40.557Z,20.2
2019-02-24T02:43:30.613Z,20.2
2019-02-24T02:44:20.682Z,20.2
2019-02-24T02:45:10.737Z,20.2
2019-02-24T02:46:00.785Z,20.2
2019-02-24T02:46:50.897Z,20.2
2019-02-24T02:47:40.905Z,20.2
2019-02-24T02:48:30.958Z,20.1
2019-02-24T02:49:21.019Z,20.1
2019-02-24T02:50:11.071Z,20.2
2019-02-24T02:51:01.127Z,20.1
2019-02-24T02:51:51.184Z,20.2
2019-02-24T02:52:41.243Z,20.1
2019-02-24T02:53:31.354Z,20.1
2019-02-24T02:54:21.366Z,20.1
2019-02-24T02:55:11.146Z,20.1
2019-02-24T02:56:01.476Z,20.1
2019-02-24T02:56:51.526Z,20.1
2019-02-24T02:57:41.582Z,20.1
2019-02-24T02:58:31.364Z,20.1
2019-02-24T02:59:21.706Z,20.1
2019-02-24T03:00:11.496Z,20.1
2019-02-24T03:01:01.813Z,20.1
2019-02-24T03:01:51.871Z,20.1
2019-02-24T03:02:41.653Z,20.1
2019-02-24T03:03:31.990Z,20.1
2019-02-24T03:04:21.768Z,20.1
2019-02-24T03:07:54.770Z,20.1
2019-02-24T03:08:44.584Z,20.1
2019-02-24T03:09:34.893Z,20.1
2019-02-24T03:10:24.938Z,20.1
2019-02-24T03:11:15.000Z,20.1
2019-02-24T03:12:05.050Z,20.1
2019-02-24T03:12:55.106Z,20.1
2019-02-24T03:13:44.904Z,20
2019-02-24T03:14:35.243Z,20.1
2019-02-24T03:15:25.000Z,20
2019-02-24T03:16:15.338Z,20
2019-02-24T03:17:05.408Z,20
2019-02-24T03:17:55.454Z,20
2019-02-24T03:18:45.290Z,20
2019-02-24T03:19:35.558Z,20
2019-02-24T03:20:25.625Z,20
2019-02-24T03:21:15.688Z,20
2019-02-24T03:22:05.460Z,20
2019-02-24T03:22:55.807Z,20
2019-02-24T03:23:45.848Z,20
2019-02-24T03:24:35.657Z,20
2019-02-24T03:25:25.965Z,20
2019-02-24T03:26:16.020Z,20
2019-02-24T03:27:06.077Z,20
2019-02-24T03:27:55.852Z,19.9
2019-02-24T03:28:46.179Z,20
2019-02-24T03:29:36.242Z,19.9
2019-02-24T03:30:26.055Z,19.9
2019-02-24T03:31:16.373Z,19.9
2019-02-24T03:32:06.562Z,19.9
2019-02-24T03:32:56.245Z,19.9
2019-02-24T03:33:46.553Z,19.9
2019-02-24T03:34:36.582Z,19.9
2019-02-24T03:35:26.375Z,19.9
2019-02-24T03:36:16.425Z,19.9
2019-02-24T03:37:06.754Z,19.9
2019-02-24T03:37:56.807Z,19.9
2019-02-24T03:38:46.872Z,19.9
2019-02-24T03:39:36.920Z,19.9
2019-02-24T03:40:26.979Z,19.9
2019-02-24T03:41:16.766Z,19.9
2019-02-24T03:42:07.105Z,19.9
2019-02-24T03:42:56.877Z,19.9
2019-02-24T03:43:46.982Z,19.9
2019-02-24T03:44:37.271Z,19.9
2019-02-24T03:45:27.056Z,19.9
2019-02-24T03:46:17.381Z,19.9
2019-02-24T03:47:07.442Z,19.9
2019-02-24T03:47:57.226Z,19.9
2019-02-24T03:48:47.553Z,19.9
2019-02-24T03:49:37.616Z,19.9
2019-02-24T03:50:27.672Z,19.9
2019-02-24T03:51:17.456Z,19.9
2019-02-24T03:52:07.778Z,19.9
2019-02-24T03:52:57.831Z,19.9
2019-02-24T03:53:47.633Z,19.9
2019-02-24T03:54:37.949Z,19.9
2019-02-24T03:55:28.004Z,19.8
2019-02-24T03:56:18.067Z,19.8
2019-02-24T03:57:08.122Z,19.8
2019-02-24T03:57:57.919Z,19.8
2019-02-24T03:58:48.241Z,19.8
2019-02-24T03:59:38.297Z,19.8
2019-02-24T04:00:28.354Z,19.8
2019-02-24T04:01:18.414Z,19.8
2019-02-24T04:02:08.460Z,19.8
2019-02-24T04:02:58.534Z,19.8
2019-02-24T04:03:48.326Z,19.8
2019-02-24T04:04:38.639Z,19.8
2019-02-24T04:05:28.430Z,19.8
2019-02-24T04:06:18.748Z,19.8
2019-02-24T04:07:08.803Z,19.8
2019-02-24T04:07:58.579Z,19.8
2019-02-24T04:08:48.930Z,19.8
2019-02-24T04:09:38.973Z,19.8
2019-02-24T04:10:28.777Z,19.8
2019-02-24T04:11:19.090Z,19.8
2019-02-24T04:12:09.139Z,19.8
2019-02-24T04:12:59.196Z,19.8
2019-02-24T04:13:49.255Z,19.8
2019-02-24T04:14:39.315Z,19.8
2019-02-24T04:15:29.367Z,19.8
2019-02-24T04:16:19.430Z,19.8
2019-02-24T04:17:09.205Z,19.8
2019-02-24T04:17:59.285Z,19.8
2019-02-24T04:18:49.590Z,19.7
2019-02-24T04:19:39.386Z,19.7
2019-02-24T04:20:29.709Z,19.8
2019-02-24T04:21:19.774Z,19.7
2019-02-24T04:22:09.840Z,19.7
2019-02-24T04:22:59.332Z,19.7
2019-02-24T04:23:49.943Z,19.7
2019-02-24T04:24:40.001Z,19.7
2019-02-24T04:25:29.765Z,19.7
2019-02-24T04:26:19.837Z,19.7
2019-02-24T04:27:12.292Z,19.7
2019-02-24T04:27:59.946Z,19.7
2019-02-24T04:28:50.281Z,19.7
2019-02-24T04:29:40.331Z,19.7
2019-02-24T04:30:30.434Z,19.7
2019-02-24T04:31:20.530Z,19.7
2019-02-24T04:32:10.519Z,19.7
2019-02-24T04:33:00.578Z,19.6
2019-02-24T04:33:50.624Z,19.6
2019-02-24T04:34:40.391Z,19.6
2019-02-24T04:35:30.754Z,19.7
2019-02-24T04:36:20.785Z,19.6
2019-02-24T04:37:10.851Z,19.6
2019-02-24T04:38:00.621Z,19.6
2019-02-24T04:38:50.695Z,19.6
2019-02-24T04:39:40.742Z,19.6
2019-02-24T04:40:31.079Z,19.6
2019-02-24T04:41:21.160Z,19.6
2019-02-24T04:42:10.911Z,19.6
2019-02-24T04:43:01.241Z,19.6
2019-02-24T04:43:51.328Z,19.6
2019-02-24T04:44:41.361Z,19.6
2019-02-24T04:45:31.408Z,19.6
2019-02-24T04:46:21.466Z,19.6
2019-02-24T04:47:11.527Z,19.6
2019-02-24T04:48:01.316Z,19.6
2019-02-24T04:48:51.664Z,19.6
2019-02-24T04:49:41.713Z,19.6
2019-02-24T04:50:31.476Z,19.6
2019-02-24T04:51:21.808Z,19.6
2019-02-24T04:52:11.863Z,19.6
2019-02-24T04:53:01.921Z,19.6
2019-02-24T04:53:51.971Z,19.6
2019-02-24T04:54:41.832Z,19.6
2019-02-24T04:55:32.089Z,19.6
2019-02-24T04:56:21.948Z,19.6
2019-02-24T04:57:12.209Z,19.6
2019-02-24T04:58:01.994Z,19.6
2019-02-24T04:58:52.305Z,19.6
2019-02-24T04:59:42.379Z,19.6
2019-02-24T05:00:32.433Z,19.5
2019-02-24T05:01:22.488Z,19.6
2019-02-24T05:02:12.540Z,19.5
2019-02-24T05:03:02.598Z,19.5
2019-02-24T05:03:52.658Z,19.5
2019-02-24T05:04:42.445Z,19.5
2019-02-24T05:05:32.767Z,19.5
2019-02-24T05:06:22.846Z,19.5
2019-02-24T05:07:12.883Z,19.5
2019-02-24T05:08:02.943Z,19.5
2019-02-24T05:08:52.727Z,19.5
2019-02-24T05:09:43.060Z,19.5
2019-02-24T05:10:32.847Z,19.5
2019-02-24T05:11:22.908Z,19.5
2019-02-24T05:12:13.227Z,19.4
2019-02-24T05:13:03.074Z,19.4
2019-02-24T05:13:53.068Z,19.5
2019-02-24T05:14:43.407Z,19.5
2019-02-24T05:15:33.453Z,19.4
2019-02-24T05:16:23.510Z,19.4
2019-02-24T05:17:13.570Z,19.4
2019-02-24T05:18:03.635Z,19.4
2019-02-24T05:18:53.685Z,19.4
2019-02-24T05:19:43.728Z,19.4
2019-02-24T05:20:33.788Z,19.4
2019-02-24T05:21:23.863Z,19.4
2019-02-24T05:22:13.905Z,19.4
2019-02-24T05:23:03.970Z,19.4
2019-02-24T05:23:54.010Z,19.4
2019-02-24T05:24:44.070Z,19.4
2019-02-24T05:25:33.849Z,19.4
2019-02-24T05:26:24.193Z,19.4
2019-02-24T05:27:14.238Z,19.4
2019-02-24T05:28:04.304Z,19.4
2019-02-24T05:28:54.369Z,19.4
2019-02-24T05:29:47.287Z,19.4
2019-02-24T05:30:34.487Z,19.4
2019-02-24T05:31:24.520Z,19.4
2019-02-24T05:32:14.585Z,19.4
2019-02-24T05:33:04.655Z,19.4
2019-02-24T05:33:54.713Z,19.4
2019-02-24T05:34:44.765Z,19.4
2019-02-24T05:35:34.826Z,19.4
2019-02-24T05:36:24.876Z,19.4
2019-02-24T05:37:14.652Z,19.4
2019-02-24T05:38:05.015Z,19.4
2019-02-24T05:38:55.034Z,19.4
2019-02-24T05:39:45.094Z,19.3
2019-02-24T05:40:35.156Z,19.4
2019-02-24T05:41:25.206Z,19.4
2019-02-24T05:42:15.263Z,19.4
2019-02-24T05:43:05.314Z,19.3
2019-02-24T05:43:55.092Z,19.3
2019-02-24T05:44:45.429Z,19.3
2019-02-24T05:45:35.518Z,19.3
2019-02-24T05:46:25.540Z,19.4
2019-02-24T05:47:15.628Z,19.3
2019-02-24T05:48:05.677Z,19.3
2019-02-24T05:48:55.711Z,19.3
2019-02-24T05:49:45.816Z,19.4
2019-02-24T05:50:35.826Z,19.3
2019-02-24T05:51:25.890Z,19.3
2019-02-24T05:52:15.941Z,19.3
2019-02-24T05:53:06.006Z,19.3
2019-02-24T05:53:56.050Z,19.3
2019-02-24T05:54:46.129Z,19.3
2019-02-24T05:55:36.159Z,19.3
2019-02-24T05:56:26.253Z,19.3
2019-02-24T05:57:16.275Z,19.3
2019-02-24T05:58:06.334Z,19.3
2019-02-24T05:58:56.391Z,19.3
2019-02-24T05:59:56.193Z,19.3
2019-02-24T06:00:36.513Z,19.3
2019-02-24T06:01:26.564Z,19.3
2019-02-24T06:02:16.622Z,19.3
2019-02-24T06:03:06.668Z,19.3
2019-02-24T06:03:56.741Z,19.3
2019-02-24T06:05:54.343Z,19.3
2019-02-24T06:06:44.681Z,19.3
2019-02-24T06:07:34.763Z,19.3
2019-02-24T06:08:24.785Z,19.3
2019-02-24T06:09:14.567Z,19.3
2019-02-24T06:10:04.906Z,19.3
2019-02-24T06:10:54.963Z,19.3
2019-02-24T06:11:44.755Z,19.3
2019-02-24T06:12:35.073Z,19.3
2019-02-24T06:13:25.132Z,19.3
2019-02-24T06:14:14.911Z,19.3
2019-02-24T06:15:05.258Z,19.3
2019-02-24T06:15:55.066Z,19.3
2019-02-24T06:16:45.357Z,19.3
2019-02-24T06:17:35.413Z,19.3
2019-02-24T06:18:25.487Z,19.3
2019-02-24T06:19:15.531Z,19.3
2019-02-24T06:20:05.610Z,19.3
2019-02-24T06:20:55.385Z,19.3
2019-02-24T06:21:45.695Z,19.3
2019-02-24T06:22:35.477Z,19.3
2019-02-24T06:23:25.806Z,19.3
2019-02-24T06:24:15.872Z,19.3
2019-02-24T06:25:05.993Z,19.3
2019-02-24T06:25:55.984Z,19.3
2019-02-24T06:26:46.040Z,19.3
2019-02-24T06:27:36.099Z,19.3
2019-02-24T06:28:26.154Z,19.3
2019-02-24T06:29:16.217Z,19.3
2019-02-24T06:30:06.901Z,19.3
2019-02-24T06:30:56.322Z,19.3
2019-02-24T06:31:46.385Z,19.3
2019-02-24T06:32:36.441Z,19.3
2019-02-24T06:33:26.494Z,19.3
2019-02-24T06:34:16.544Z,19.3
2019-02-24T06:35:06.607Z,19.3
2019-02-24T06:35:56.711Z,19.3
2019-02-24T06:36:46.716Z,19.3
2019-02-24T06:37:36.784Z,19.3
2019-02-24T06:38:26.841Z,19.3
2019-02-24T06:39:16.944Z,19.3
2019-02-24T06:40:06.679Z,19.3
2019-02-24T06:40:57.001Z,19.3
2019-02-24T06:41:47.056Z,19.3
2019-02-24T06:42:37.113Z,19.3
2019-02-24T06:43:27.177Z,19.3
2019-02-24T06:44:17.237Z,19.3
2019-02-24T06:45:07.291Z,19.3
2019-02-24T06:45:57.063Z,19.3
2019-02-24T06:46:47.406Z,19.3
2019-02-24T06:47:37.469Z,19.3
2019-02-24T06:48:27.526Z,19.3
2019-02-24T06:49:17.591Z,19.3
2019-02-24T06:50:07.356Z,19.3
2019-02-24T06:50:57.691Z,19.3
2019-02-24T06:51:47.746Z,19.4
2019-02-24T06:52:37.538Z,19.4
2019-02-24T06:53:27.846Z,19.4
2019-02-24T06:54:17.917Z,19.4
2019-02-24T06:55:07.963Z,19.4
2019-02-24T06:55:57.765Z,19.4
2019-02-24T06:56:47.803Z,19.4
2019-02-24T06:57:37.856Z,19.4
2019-02-24T06:58:28.193Z,19.4
2019-02-24T06:59:18.008Z,19.4
2019-02-24T07:00:15.102Z,19.4
2019-02-24T07:00:58.360Z,19.4
2019-02-24T07:01:48.417Z,19.4
2019-02-24T07:02:38.481Z,19.4
2019-02-24T07:03:28.546Z,19.4
2019-02-24T07:05:54.580Z,19.4
2019-02-24T07:06:44.647Z,19.4
2019-02-24T07:07:34.420Z,19.4
2019-02-24T07:08:24.747Z,19.4
2019-02-24T07:09:14.800Z,19.4
2019-02-24T07:10:04.865Z,19.4
2019-02-24T07:10:54.914Z,19.4
2019-02-24T07:11:44.969Z,19.4
2019-02-24T07:12:35.034Z,19.4
2019-02-24T07:13:25.092Z,19.4
2019-02-24T07:14:14.859Z,19.4
2019-02-24T07:15:05.199Z,19.5
2019-02-24T07:15:55.257Z,19.4
2019-02-24T07:16:45.314Z,19.4
2019-02-24T07:17:35.368Z,19.4
2019-02-24T07:18:25.424Z,19.4
2019-02-24T07:19:15.209Z,19.4
2019-02-24T07:20:05.542Z,19.4
2019-02-24T07:20:55.592Z,19.4
2019-02-24T07:21:45.661Z,19.4
2019-02-24T07:22:35.711Z,19.5
2019-02-24T07:23:25.759Z,19.5
2019-02-24T07:24:15.822Z,19.5
2019-02-24T07:25:05.880Z,19.5
2019-02-24T07:25:55.669Z,19.4
2019-02-24T07:26:45.984Z,19.4
2019-02-24T07:27:36.044Z,19.5
2019-02-24T07:28:26.101Z,19.5
2019-02-24T07:29:16.166Z,19.5
2019-02-24T07:30:06.213Z,19.5
2019-02-24T07:30:56.276Z,19.5
2019-02-24T07:31:46.328Z,19.5
2019-02-24T07:32:36.106Z,19.5
2019-02-24T07:33:26.444Z,19.5
2019-02-24T07:34:16.502Z,19.4
2019-02-24T07:35:06.556Z,19.5
2019-02-24T07:35:56.619Z,19.5
2019-02-24T07:36:46.720Z,19.5
2019-02-24T07:37:36.726Z,19.5
2019-02-24T07:38:26.789Z,19.5
2019-02-24T07:39:16.834Z,19.5
2019-02-24T07:40:06.895Z,19.6
2019-02-24T07:40:56.952Z,19.6
2019-02-24T07:41:47.003Z,19.6
2019-02-24T07:42:37.062Z,19.6
2019-02-24T07:43:26.565Z,19.6
2019-02-24T07:44:17.179Z,19.6
2019-02-24T07:45:07.227Z,19.6
2019-02-24T07:45:57.004Z,19.6
2019-02-24T07:46:47.335Z,19.6
2019-02-24T07:47:37.395Z,19.6
2019-02-24T07:48:27.455Z,19.6
2019-02-24T07:49:17.511Z,19.6
2019-02-24T07:50:07.565Z,19.6
2019-02-24T07:50:57.676Z,19.6
2019-02-24T07:51:47.681Z,19.6
2019-02-24T07:52:37.739Z,19.6
2019-02-24T07:53:27.789Z,19.6
2019-02-24T07:54:17.853Z,19.6
2019-02-24T07:55:07.910Z,19.6
2019-02-24T07:55:57.970Z,19.6
2019-02-24T07:56:48.019Z,19.6
2019-02-24T07:57:38.125Z,19.6
2019-02-24T07:58:28.133Z,19.6
2019-02-24T07:59:18.182Z,19.6
2019-02-24T08:00:08.242Z,19.6
2019-02-24T08:00:58.298Z,19.6
2019-02-24T08:01:48.355Z,19.6
2019-02-24T08:02:38.490Z,19.7
2019-02-24T08:03:28.467Z,19.6
2019-02-24T08:04:18.526Z,19.6
2019-02-24T08:05:08.582Z,19.6
2019-02-24T08:05:58.639Z,19.6
2019-02-24T08:06:48.699Z,19.6
2019-02-24T08:07:38.744Z,19.7
2019-02-24T08:08:28.530Z,19.6
2019-02-24T08:09:18.854Z,19.7
2019-02-24T08:10:08.918Z,19.7
2019-02-24T08:10:58.974Z,19.7
2019-02-24T08:11:49.026Z,19.7
2019-02-24T08:12:39.088Z,19.6
2019-02-24T08:13:29.146Z,19.7
2019-02-24T08:14:18.926Z,19.7
2019-02-24T08:15:09.289Z,19.7
2019-02-24T08:15:59.311Z,19.7
2019-02-24T08:16:49.089Z,19.7
2019-02-24T08:17:39.179Z,19.7
2019-02-24T08:18:29.473Z,19.7
2019-02-24T08:19:19.533Z,19.7
2019-02-24T08:20:09.591Z,19.7
2019-02-24T08:20:59.863Z,19.7
2019-02-24T08:21:49.713Z,19.7
2019-02-24T08:22:39.761Z,19.7
2019-02-24T08:23:29.556Z,19.8
2019-02-24T08:24:19.870Z,19.8
2019-02-24T08:25:09.658Z,19.8
2019-02-24T08:25:59.979Z,19.8
2019-02-24T08:26:50.053Z,19.7
2019-02-24T08:27:40.093Z,19.8
2019-02-24T08:28:30.151Z,19.8
2019-02-24T08:29:20.218Z,19.8
2019-02-24T08:30:10.266Z,19.7
2019-02-24T08:31:00.325Z,19.8
2019-02-24T08:31:50.370Z,19.8
2019-02-24T08:32:40.442Z,19.8
2019-02-24T08:33:30.490Z,19.8
2019-02-24T08:34:20.278Z,19.8
2019-02-24T08:35:10.607Z,19.8
2019-02-24T08:36:00.391Z,19.8
2019-02-24T08:36:50.715Z,19.8
2019-02-24T08:37:40.500Z,19.8
2019-02-24T08:38:30.832Z,19.8
2019-02-24T08:39:20.895Z,19.8
2019-02-24T08:40:10.944Z,19.8
2019-02-24T08:41:01.007Z,19.8
2019-02-24T08:41:50.780Z,19.8
2019-02-24T08:42:41.115Z,19.8
2019-02-24T08:43:31.170Z,19.8
2019-02-24T08:44:23.252Z,19.8
2019-02-24T08:45:11.297Z,19.8
2019-02-24T08:46:01.334Z,19.8
2019-02-24T08:46:51.395Z,19.8
2019-02-24T08:47:41.449Z,19.8
2019-02-24T08:48:31.237Z,19.8
2019-02-24T08:49:21.569Z,19.8
2019-02-24T08:50:11.624Z,19.8
2019-02-24T08:51:01.679Z,19.8
2019-02-24T08:51:51.747Z,19.8
2019-02-24T08:52:41.797Z,19.8
2019-02-24T08:53:31.847Z,19.8
2019-02-24T08:54:21.907Z,19.8
2019-02-24T08:55:11.976Z,19.8
2019-02-24T08:56:02.024Z,19.9
2019-02-24T08:56:52.082Z,19.9
2019-02-24T08:57:42.129Z,19.9
2019-02-24T08:58:32.196Z,19.9
2019-02-24T08:59:22.254Z,19.9
2019-02-24T09:00:12.034Z,19.9
2019-02-24T09:01:02.372Z,19.9
2019-02-24T09:01:52.422Z,19.9
2019-02-24T09:02:42.474Z,19.9
2019-02-24T09:03:32.535Z,19.9
2019-02-24T09:04:22.589Z,19.9
2019-02-24T09:05:12.638Z,19.9
2019-02-24T09:06:02.704Z,19.9
2019-02-24T09:06:52.503Z,19.9
2019-02-24T09:07:42.821Z,19.9
2019-02-24T09:08:32.864Z,19.9
2019-02-24T09:09:22.646Z,19.9
2019-02-24T09:10:12.988Z,19.9
2019-02-24T09:11:03.046Z,19.9
2019-02-24T09:11:53.102Z,19.9
2019-02-24T09:12:43.161Z,19.9
2019-02-24T09:13:33.214Z,19.9
2019-02-24T09:14:23.276Z,19.9
2019-02-24T09:15:13.326Z,19.9
2019-02-24T09:16:03.447Z,19.9
2019-02-24T09:16:53.445Z,19.9
2019-02-24T09:17:43.555Z,19.9
2019-02-24T09:18:33.556Z,19.9
2019-02-24T09:19:23.363Z,19.9
2019-02-24T09:20:13.671Z,19.9
2019-02-24T09:21:03.739Z,19.9
2019-02-24T09:21:53.772Z,19.9
2019-02-24T09:22:43.841Z,19.9
2019-02-24T09:23:33.913Z,19.9
2019-02-24T09:24:23.665Z,19.9
2019-02-24T09:25:14.008Z,19.9
2019-02-24T09:26:04.058Z,19.9
2019-02-24T09:26:53.847Z,19.9
2019-02-24T09:27:44.168Z,19.9
2019-02-24T09:28:33.952Z,19.9
2019-02-24T09:29:24.020Z,19.9
2019-02-24T09:30:14.360Z,19.9
2019-02-24T09:31:04.408Z,20
2019-02-24T09:31:54.457Z,19.9
2019-02-24T09:32:44.240Z,20
2019-02-24T09:33:34.562Z,20
2019-02-24T09:34:24.628Z,20
2019-02-24T09:35:14.397Z,20
2019-02-24T09:36:04.740Z,20
2019-02-24T09:36:54.525Z,20
2019-02-24T09:37:44.848Z,20
2019-02-24T09:38:34.627Z,20
2019-02-24T09:39:24.959Z,20
2019-02-24T09:40:15.014Z,20
2019-02-24T09:41:05.080Z,20
2019-02-24T09:41:55.174Z,20.1
2019-02-24T09:42:45.186Z,20
2019-02-24T09:43:35.237Z,20
2019-02-24T09:44:25.299Z,20
2019-02-24T09:45:15.360Z,20
2019-02-24T09:46:05.425Z,20.1
2019-02-24T09:46:55.466Z,20.1
2019-02-24T09:47:48.093Z,20.1
2019-02-24T09:48:35.579Z,20.1
2019-02-24T09:49:25.636Z,20.1
2019-02-24T09:50:15.696Z,20.1
2019-02-24T09:51:05.758Z,20.1
2019-02-24T09:51:55.803Z,20.1
2019-02-24T09:52:45.593Z,20
2019-02-24T09:53:35.923Z,20.1
2019-02-24T09:54:25.979Z,20.1
2019-02-24T09:55:16.034Z,20
2019-02-24T09:56:06.086Z,20
2019-02-24T09:56:56.147Z,20
2019-02-24T09:57:46.209Z,20
2019-02-24T09:58:36.261Z,20
2019-02-24T09:59:26.043Z,20
2019-02-24T10:00:16.378Z,20
2019-02-24T10:01:11.921Z,20
2019-02-24T10:01:56.487Z,20
2019-02-24T10:02:46.538Z,20
2019-02-24T10:03:36.316Z,20
2019-02-24T10:04:26.652Z,20
2019-02-24T10:06:54.432Z,20
2019-02-24T10:07:44.479Z,20
2019-02-24T10:08:34.541Z,20.1
2019-02-24T10:09:24.590Z,20.1
2019-02-24T10:10:14.653Z,20.1
2019-02-24T10:11:04.707Z,20.1
2019-02-24T10:11:54.759Z,20.1
2019-02-24T10:12:44.925Z,20.1
2019-02-24T10:13:34.875Z,20.1
2019-02-24T10:14:24.931Z,20.1
2019-02-24T10:15:15.004Z,20.1
2019-02-24T10:16:05.037Z,20.1
2019-02-24T10:16:54.825Z,20.1
2019-02-24T10:17:45.160Z,20.1
2019-02-24T10:18:34.933Z,20.1
2019-02-24T10:19:25.265Z,20.1
2019-02-24T10:20:15.332Z,20.1
2019-02-24T10:21:05.438Z,20.1
2019-02-24T10:21:55.433Z,20.1
2019-02-24T10:22:45.499Z,20.1
2019-02-24T10:23:35.552Z,20.1
2019-02-24T10:24:25.642Z,20.1
2019-02-24T10:25:15.670Z,20.1
2019-02-24T10:26:05.729Z,20.1
2019-02-24T10:26:55.774Z,20.1
2019-02-24T10:27:45.836Z,20.1
2019-02-24T10:28:35.912Z,20.2
2019-02-24T10:29:25.964Z,20.1
2019-02-24T10:30:16.010Z,20.2
2019-02-24T10:31:06.064Z,20.2
2019-02-24T10:31:55.852Z,20.2
2019-02-24T10:32:45.897Z,20.1
2019-02-24T10:33:36.236Z,19.9
2019-02-24T10:34:26.286Z,19.4
2019-02-24T10:35:16.348Z,18.8
2019-02-24T10:36:06.400Z,18.8
2019-02-24T10:36:56.454Z,18.8
2019-02-24T10:37:46.517Z,18.9
2019-02-24T10:38:36.570Z,18.9
2019-02-24T10:39:30.852Z,19
2019-02-24T10:40:16.697Z,19.1
2019-02-24T10:41:06.756Z,19.2
2019-02-24T10:41:56.814Z,19.3
2019-02-24T10:42:46.577Z,19.3
2019-02-24T10:43:36.922Z,19.3
2019-02-24T10:44:26.963Z,19.4
2019-02-24T10:45:17.038Z,19.4
2019-02-24T10:46:06.813Z,19.5
2019-02-24T10:46:57.139Z,19.5
2019-02-24T10:47:47.206Z,19.6
2019-02-24T10:48:37.250Z,19.6
2019-02-24T10:49:27.313Z,19.6
2019-02-24T10:50:17.095Z,19.6
2019-02-24T10:51:07.425Z,19.6
2019-02-24T10:51:57.483Z,19.6
2019-02-24T10:52:47.595Z,19.6
2019-02-24T10:53:37.600Z,19.6
2019-02-24T10:54:27.648Z,19.7
2019-02-24T10:55:17.712Z,19.7
2019-02-24T10:56:07.763Z,19.7
2019-02-24T10:56:57.540Z,19.7
2019-02-24T10:57:47.887Z,19.7
2019-02-24T10:58:37.938Z,19.7
2019-02-24T10:59:27.987Z,19.8
2019-02-24T11:00:17.782Z,19.8
2019-02-24T11:01:07.828Z,19.8
2019-02-24T11:01:58.182Z,19.8
2019-02-24T11:02:48.225Z,19.8
2019-02-24T11:03:38.276Z,19.8
2019-02-24T11:04:28.330Z,19.8
2019-02-24T11:05:18.393Z,19.8
2019-02-24T11:06:08.448Z,19.8
2019-02-24T11:06:58.499Z,19.8
2019-02-24T11:07:48.564Z,19.8
2019-02-24T11:08:38.350Z,19.8
2019-02-24T11:09:28.667Z,19.8
2019-02-24T11:10:18.731Z,19.8
2019-02-24T11:11:08.789Z,19.8
2019-02-24T11:11:58.840Z,19.8
2019-02-24T11:12:48.905Z,19.8
2019-02-24T11:13:38.954Z,19.8
2019-02-24T11:14:29.009Z,19.8
2019-02-24T11:15:19.066Z,19.8
2019-02-24T11:16:08.883Z,19.8